sensor_id;sensor_type;location;lat;lon;timestamp;pressure;altitude;pressure_sealevel;temperature;humidity
55517;BME280;41724;51.176;-0.708;2023-04-30T00:00:19;101804.98;;;11.17;55.49
55517;BME280;41724;51.176;-0.708;2023-04-30T00:02:46;101808.31;;;11.29;54.95
55517;BME280;41724;51.176;-0.708;2023-04-30T00:05:13;101812.92;;;10.82;55.03
55517;BME280;41724;51.176;-0.708;2023-04-30T00:07:40;101811.19;;;10.82;55.06
55517;BME280;41724;51.176;-0.708;2023-04-30T00:10:08;101811.29;;;10.91;54.98
55517;BME280;41724;51.176;-0.708;2023-04-30T00:12:36;101809.79;;;11.08;54.57
55517;BME280;41724;51.176;-0.708;2023-04-30T00:15:03;101812.21;;;11.09;54.42
55517;BME280;41724;51.176;-0.708;2023-04-30T00:17:30;101811.02;;;10.91;55.04
55517;BME280;41724;51.176;-0.708;2023-04-30T00:19:57;101808.32;;;11.26;55.23
55517;BME280;41724;51.176;-0.708;2023-04-30T00:22:25;101809.03;;;10.46;56.17
55517;BME280;41724;51.176;-0.708;2023-04-30T00:24:52;101810.58;;;10.80;55.68
55517;BME280;41724;51.176;-0.708;2023-04-30T00:27:19;101813.51;;;11.06;55.55
55517;BME280;41724;51.176;-0.708;2023-04-30T00:29:46;101810.00;;;10.83;54.95
55517;BME280;41724;51.176;-0.708;2023-04-30T00:32:13;101807.45;;;11.11;54.99
55517;BME280;41724;51.176;-0.708;2023-04-30T00:34:40;101805.98;;;10.98;55.26
55517;BME280;41724;51.176;-0.708;2023-04-30T00:37:07;101805.36;;;10.57;55.61
55517;BME280;41724;51.176;-0.708;2023-04-30T00:39:34;101801.20;;;10.72;55.36
55517;BME280;41724;51.176;-0.708;2023-04-30T00:42:02;101798.18;;;10.76;55.41
55517;BME280;41724;51.176;-0.708;2023-04-30T00:44:28;101800.76;;;10.65;54.94
55517;BME280;41724;51.176;-0.708;2023-04-30T00:46:56;101799.75;;;10.79;55.08
55517;BME280;41724;51.176;-0.708;2023-04-30T00:49:23;101799.56;;;10.64;54.89
55517;BME280;41724;51.176;-0.708;2023-04-30T00:51:51;101797.59;;;10.56;55.04
55517;BME280;41724;51.176;-0.708;2023-04-30T00:54:19;101793.65;;;10.84;55.15
55517;BME280;41724;51.176;-0.708;2023-04-30T00:56:47;101789.86;;;10.53;54.27
55517;BME280;41724;51.176;-0.708;2023-04-30T00:59:14;101784.18;;;10.68;54.55
55517;BME280;41724;51.176;-0.708;2023-04-30T01:01:42;101782.06;;;10.44;54.89
55517;BME280;41724;51.176;-0.708;2023-04-30T01:04:09;101782.43;;;10.39;55.19
55517;BME280;41724;51.176;-0.708;2023-04-30T01:06:36;101778.38;;;10.63;54.98
55517;BME280;41724;51.176;-0.708;2023-04-30T01:09:03;101775.67;;;10.46;54.60
55517;BME280;41724;51.176;-0.708;2023-04-30T01:11:39;101782.52;;;10.16;55.34
55517;BME280;41724;51.176;-0.708;2023-04-30T01:14:16;101773.27;;;10.04;55.71
55517;BME280;41724;51.176;-0.708;2023-04-30T01:16:50;101768.34;;;10.19;55.22
55517;BME280;41724;51.176;-0.708;2023-04-30T01:19:34;101769.50;;;10.33;55.17
55517;BME280;41724;51.176;-0.708;2023-04-30T01:22:03;101773.50;;;10.17;54.99
55517;BME280;41724;51.176;-0.708;2023-04-30T01:24:45;101768.11;;;10.31;54.51
55517;BME280;41724;51.176;-0.708;2023-04-30T01:27:31;101768.44;;;10.32;54.30
55517;BME280;41724;51.176;-0.708;2023-04-30T01:30:08;101764.13;;;10.23;54.31
55517;BME280;41724;51.176;-0.708;2023-04-30T01:32:36;101765.19;;;10.10;54.31
55517;BME280;41724;51.176;-0.708;2023-04-30T01:35:02;101759.56;;;10.18;54.36
55517;BME280;41724;51.176;-0.708;2023-04-30T01:37:33;101758.75;;;9.90;54.12
55517;BME280;41724;51.176;-0.708;2023-04-30T01:40:17;101757.80;;;10.06;54.18
55517;BME280;41724;51.176;-0.708;2023-04-30T01:43:11;101752.41;;;10.09;53.89
55517;BME280;41724;51.176;-0.708;2023-04-30T01:45:56;101751.76;;;9.95;54.33
55517;BME280;41724;51.176;-0.708;2023-04-30T01:48:34;101753.77;;;10.32;54.38
55517;BME280;41724;51.176;-0.708;2023-04-30T01:51:14;101758.91;;;9.49;54.61
55517;BME280;41724;51.176;-0.708;2023-04-30T01:53:44;101759.46;;;9.76;54.52
55517;BME280;41724;51.176;-0.708;2023-04-30T01:56:17;101759.24;;;9.78;54.41
55517;BME280;41724;51.176;-0.708;2023-04-30T01:58:48;101757.56;;;10.09;54.32
55517;BME280;41724;51.176;-0.708;2023-04-30T02:01:32;101754.30;;;9.36;54.55
55517;BME280;41724;51.176;-0.708;2023-04-30T02:03:59;101756.00;;;9.51;54.07
55517;BME280;41724;51.176;-0.708;2023-04-30T02:06:26;101752.06;;;9.73;54.36
55517;BME280;41724;51.176;-0.708;2023-04-30T02:08:54;101750.72;;;9.77;54.32
55517;BME280;41724;51.176;-0.708;2023-04-30T02:11:21;101751.18;;;9.65;53.48
55517;BME280;41724;51.176;-0.708;2023-04-30T02:13:48;101748.73;;;10.04;53.98
55517;BME280;41724;51.176;-0.708;2023-04-30T02:16:15;101752.60;;;9.64;54.38
55517;BME280;41724;51.176;-0.708;2023-04-30T02:18:42;101749.76;;;9.90;54.68
55517;BME280;41724;51.176;-0.708;2023-04-30T02:21:09;101751.92;;;9.66;54.42
55517;BME280;41724;51.176;-0.708;2023-04-30T02:23:36;101750.76;;;9.67;54.22
55517;BME280;41724;51.176;-0.708;2023-04-30T02:26:03;101748.92;;;9.52;53.45
55517;BME280;41724;51.176;-0.708;2023-04-30T02:28:30;101745.81;;;9.49;54.99
55517;BME280;41724;51.176;-0.708;2023-04-30T02:30:58;101744.00;;;9.48;54.49
55517;BME280;41724;51.176;-0.708;2023-04-30T02:33:25;101747.41;;;9.80;54.17
55517;BME280;41724;51.176;-0.708;2023-04-30T02:35:52;101749.63;;;9.82;54.44
55517;BME280;41724;51.176;-0.708;2023-04-30T02:38:19;101750.97;;;9.40;54.59
55517;BME280;41724;51.176;-0.708;2023-04-30T02:40:46;101752.93;;;9.31;54.40
55517;BME280;41724;51.176;-0.708;2023-04-30T02:43:13;101749.16;;;9.43;54.07
55517;BME280;41724;51.176;-0.708;2023-04-30T02:45:40;101748.34;;;9.88;53.99
55517;BME280;41724;51.176;-0.708;2023-04-30T02:48:07;101744.87;;;9.45;54.83
55517;BME280;41724;51.176;-0.708;2023-04-30T02:50:35;101745.71;;;9.51;55.15
55517;BME280;41724;51.176;-0.708;2023-04-30T02:53:01;101739.30;;;9.25;55.41
55517;BME280;41724;51.176;-0.708;2023-04-30T02:55:29;101738.26;;;9.57;55.68
55517;BME280;41724;51.176;-0.708;2023-04-30T02:57:56;101739.60;;;9.55;55.25
55517;BME280;41724;51.176;-0.708;2023-04-30T03:00:23;101736.00;;;9.25;55.49
55517;BME280;41724;51.176;-0.708;2023-04-30T03:02:50;101738.00;;;8.97;55.75
55517;BME280;41724;51.176;-0.708;2023-04-30T03:05:18;101737.85;;;9.56;55.04
55517;BME280;41724;51.176;-0.708;2023-04-30T03:07:45;101735.33;;;9.23;55.23
55517;BME280;41724;51.176;-0.708;2023-04-30T03:10:12;101737.99;;;9.17;55.11
55517;BME280;41724;51.176;-0.708;2023-04-30T03:12:39;101737.81;;;9.42;54.97
55517;BME280;41724;51.176;-0.708;2023-04-30T03:15:07;101736.39;;;9.36;55.20
55517;BME280;41724;51.176;-0.708;2023-04-30T03:17:35;101733.94;;;9.86;54.62
55517;BME280;41724;51.176;-0.708;2023-04-30T03:20:02;101729.45;;;9.66;54.59
55517;BME280;41724;51.176;-0.708;2023-04-30T03:22:29;101728.24;;;9.72;55.57
55517;BME280;41724;51.176;-0.708;2023-04-30T03:24:56;101727.17;;;9.94;55.14
55517;BME280;41724;51.176;-0.708;2023-04-30T03:27:23;101726.95;;;9.85;54.75
55517;BME280;41724;51.176;-0.708;2023-04-30T03:29:50;101725.04;;;9.82;54.77
55517;BME280;41724;51.176;-0.708;2023-04-30T03:32:18;101725.44;;;10.22;55.08
55517;BME280;41724;51.176;-0.708;2023-04-30T03:34:44;101723.94;;;10.09;54.91
55517;BME280;41724;51.176;-0.708;2023-04-30T03:37:11;101723.93;;;10.14;54.92
55517;BME280;41724;51.176;-0.708;2023-04-30T03:39:39;101726.07;;;10.19;54.91
55517;BME280;41724;51.176;-0.708;2023-04-30T03:42:07;101727.59;;;10.43;54.68
55517;BME280;41724;51.176;-0.708;2023-04-30T03:44:38;101726.42;;;10.46;55.10
55517;BME280;41724;51.176;-0.708;2023-04-30T03:47:06;101727.94;;;10.73;55.13
55517;BME280;41724;51.176;-0.708;2023-04-30T03:49:33;101727.28;;;10.52;55.43
55517;BME280;41724;51.176;-0.708;2023-04-30T03:52:00;101729.95;;;10.80;54.80
55517;BME280;41724;51.176;-0.708;2023-04-30T03:54:28;101732.38;;;10.72;54.67
55517;BME280;41724;51.176;-0.708;2023-04-30T03:56:55;101730.66;;;10.77;54.70
55517;BME280;41724;51.176;-0.708;2023-04-30T03:59:23;101724.81;;;11.13;54.86
55517;BME280;41724;51.176;-0.708;2023-04-30T04:01:50;101725.84;;;11.25;55.07
55517;BME280;41724;51.176;-0.708;2023-04-30T04:04:18;101728.76;;;10.89;55.12
55517;BME280;41724;51.176;-0.708;2023-04-30T04:06:44;101727.04;;;11.48;54.74
55517;BME280;41724;51.176;-0.708;2023-04-30T04:09:12;101728.36;;;11.34;55.28
55517;BME280;41724;51.176;-0.708;2023-04-30T04:11:39;101726.26;;;11.01;56.38
55517;BME280;41724;51.176;-0.708;2023-04-30T04:14:06;101721.79;;;11.41;55.64
55517;BME280;41724;51.176;-0.708;2023-04-30T04:16:34;101723.82;;;11.83;55.71
55517;BME280;41724;51.176;-0.708;2023-04-30T04:19:01;101720.87;;;11.63;55.55
55517;BME280;41724;51.176;-0.708;2023-04-30T04:21:29;101722.27;;;11.56;56.07
55517;BME280;41724;51.176;-0.708;2023-04-30T04:23:56;101725.38;;;11.59;56.20
55517;BME280;41724;51.176;-0.708;2023-04-30T04:26:22;101728.58;;;11.73;55.71
55517;BME280;41724;51.176;-0.708;2023-04-30T04:28:50;101728.98;;;12.06;55.94
55517;BME280;41724;51.176;-0.708;2023-04-30T04:31:17;101727.89;;;11.93;55.93
55517;BME280;41724;51.176;-0.708;2023-04-30T04:33:44;101727.75;;;12.28;56.40
55517;BME280;41724;51.176;-0.708;2023-04-30T04:36:11;101731.49;;;12.13;56.62
55517;BME280;41724;51.176;-0.708;2023-04-30T04:38:38;101730.93;;;12.49;56.56
55517;BME280;41724;51.176;-0.708;2023-04-30T04:41:05;101726.49;;;12.15;57.01
55517;BME280;41724;51.176;-0.708;2023-04-30T04:43:32;101725.99;;;12.24;57.26
55517;BME280;41724;51.176;-0.708;2023-04-30T04:46:00;101721.57;;;12.29;57.58
55517;BME280;41724;51.176;-0.708;2023-04-30T04:48:26;101725.44;;;12.36;57.55
55517;BME280;41724;51.176;-0.708;2023-04-30T04:50:53;101721.39;;;12.29;57.48
55517;BME280;41724;51.176;-0.708;2023-04-30T04:53:20;101718.16;;;12.43;57.51
55517;BME280;41724;51.176;-0.708;2023-04-30T04:55:47;101718.00;;;12.78;57.70
55517;BME280;41724;51.176;-0.708;2023-04-30T04:58:15;101716.13;;;12.06;58.65
55517;BME280;41724;51.176;-0.708;2023-04-30T05:00:43;101715.84;;;12.72;58.76
55517;BME280;41724;51.176;-0.708;2023-04-30T05:03:10;101716.59;;;12.35;59.56
55517;BME280;41724;51.176;-0.708;2023-04-30T05:05:37;101716.65;;;12.82;59.98
55517;BME280;41724;51.176;-0.708;2023-04-30T05:08:05;101715.31;;;12.61;59.55
55517;BME280;41724;51.176;-0.708;2023-04-30T05:10:33;101716.54;;;12.84;59.20
55517;BME280;41724;51.176;-0.708;2023-04-30T05:13:00;101718.22;;;12.64;59.25
55517;BME280;41724;51.176;-0.708;2023-04-30T05:15:29;101712.48;;;13.07;59.07
55517;BME280;41724;51.176;-0.708;2023-04-30T05:17:57;101710.38;;;13.15;58.76
55517;BME280;41724;51.176;-0.708;2023-04-30T05:20:23;101713.52;;;13.14;58.45
55517;BME280;41724;51.176;-0.708;2023-04-30T05:22:52;101717.68;;;12.47;59.94
55517;BME280;41724;51.176;-0.708;2023-04-30T05:25:18;101718.65;;;13.30;58.25
55517;BME280;41724;51.176;-0.708;2023-04-30T05:27:46;101720.94;;;13.07;58.08
55517;BME280;41724;51.176;-0.708;2023-04-30T05:30:13;101723.06;;;13.35;57.95
55517;BME280;41724;51.176;-0.708;2023-04-30T05:32:40;101727.75;;;12.56;59.34
55517;BME280;41724;51.176;-0.708;2023-04-30T05:35:08;101729.11;;;12.94;58.15
55517;BME280;41724;51.176;-0.708;2023-04-30T05:37:35;101725.63;;;12.98;59.19
55517;BME280;41724;51.176;-0.708;2023-04-30T05:40:01;101721.56;;;12.75;59.26
55517;BME280;41724;51.176;-0.708;2023-04-30T05:42:29;101722.65;;;12.53;59.14
55517;BME280;41724;51.176;-0.708;2023-04-30T05:44:56;101723.63;;;13.14;59.37
55517;BME280;41724;51.176;-0.708;2023-04-30T05:47:23;101722.58;;;13.05;59.42
55517;BME280;41724;51.176;-0.708;2023-04-30T05:49:51;101723.67;;;13.18;58.20
55517;BME280;41724;51.176;-0.708;2023-04-30T05:52:18;101727.30;;;12.90;58.41
55517;BME280;41724;51.176;-0.708;2023-04-30T05:54:45;101728.61;;;13.45;58.20
55517;BME280;41724;51.176;-0.708;2023-04-30T05:57:12;101728.62;;;13.26;58.06
55517;BME280;41724;51.176;-0.708;2023-04-30T05:59:39;101727.57;;;13.39;58.18
55517;BME280;41724;51.176;-0.708;2023-04-30T06:02:07;101728.48;;;13.55;58.14
55517;BME280;41724;51.176;-0.708;2023-04-30T06:04:34;101733.38;;;13.09;58.97
55517;BME280;41724;51.176;-0.708;2023-04-30T06:07:01;101731.43;;;13.89;58.23
55517;BME280;41724;51.176;-0.708;2023-04-30T06:09:29;101734.63;;;12.94;59.88
55517;BME280;41724;51.176;-0.708;2023-04-30T06:11:56;101733.01;;;13.33;59.25
55517;BME280;41724;51.176;-0.708;2023-04-30T06:14:23;101741.37;;;12.84;60.71
55517;BME280;41724;51.176;-0.708;2023-04-30T06:16:51;101737.25;;;13.39;59.74
55517;BME280;41724;51.176;-0.708;2023-04-30T06:19:18;101741.61;;;13.61;59.15
55517;BME280;41724;51.176;-0.708;2023-04-30T06:21:45;101737.27;;;14.12;58.61
55517;BME280;41724;51.176;-0.708;2023-04-30T06:24:12;101737.69;;;14.11;58.06
55517;BME280;41724;51.176;-0.708;2023-04-30T06:26:39;101737.74;;;14.01;57.78
55517;BME280;41724;51.176;-0.708;2023-04-30T06:29:06;101738.64;;;14.01;57.50
55517;BME280;41724;51.176;-0.708;2023-04-30T06:31:34;101738.22;;;14.19;57.96
55517;BME280;41724;51.176;-0.708;2023-04-30T06:34:01;101741.22;;;14.58;57.46
55517;BME280;41724;51.176;-0.708;2023-04-30T06:36:28;101743.40;;;13.52;59.44
55517;BME280;41724;51.176;-0.708;2023-04-30T06:38:55;101741.12;;;13.98;58.63
55517;BME280;41724;51.176;-0.708;2023-04-30T06:41:22;101744.17;;;14.30;58.12
55517;BME280;41724;51.176;-0.708;2023-04-30T06:43:49;101743.58;;;14.37;57.72
55517;BME280;41724;51.176;-0.708;2023-04-30T06:46:16;101742.27;;;14.66;57.22
55517;BME280;41724;51.176;-0.708;2023-04-30T06:48:43;101741.35;;;14.57;56.62
55517;BME280;41724;51.176;-0.708;2023-04-30T06:51:10;101740.78;;;14.92;56.62
55517;BME280;41724;51.176;-0.708;2023-04-30T06:53:37;101740.48;;;15.00;55.69
55517;BME280;41724;51.176;-0.708;2023-04-30T06:56:04;101740.23;;;15.18;55.39
55517;BME280;41724;51.176;-0.708;2023-04-30T06:58:31;101738.95;;;15.08;55.72
55517;BME280;41724;51.176;-0.708;2023-04-30T07:00:58;101736.17;;;14.51;56.43
55517;BME280;41724;51.176;-0.708;2023-04-30T07:03:24;101739.12;;;14.86;56.21
55517;BME280;41724;51.176;-0.708;2023-04-30T07:05:52;101739.26;;;14.46;56.52
55517;BME280;41724;51.176;-0.708;2023-04-30T07:08:20;101739.94;;;15.37;55.54
55517;BME280;41724;51.176;-0.708;2023-04-30T07:10:47;101741.57;;;14.83;56.10
55517;BME280;41724;51.176;-0.708;2023-04-30T07:13:14;101741.05;;;15.57;55.98
55517;BME280;41724;51.176;-0.708;2023-04-30T07:15:41;101745.60;;;14.13;58.34
55517;BME280;41724;51.176;-0.708;2023-04-30T07:18:09;101748.70;;;14.41;59.84
55517;BME280;41724;51.176;-0.708;2023-04-30T07:20:35;101744.93;;;15.08;58.72
55517;BME280;41724;51.176;-0.708;2023-04-30T07:23:02;101747.26;;;14.84;58.04
55517;BME280;41724;51.176;-0.708;2023-04-30T07:25:29;101747.75;;;14.93;57.48
55517;BME280;41724;51.176;-0.708;2023-04-30T07:27:57;101742.33;;;14.50;58.14
55517;BME280;41724;51.176;-0.708;2023-04-30T07:30:24;101741.40;;;15.43;57.29
55517;BME280;41724;51.176;-0.708;2023-04-30T07:32:51;101738.80;;;15.11;56.88
55517;BME280;41724;51.176;-0.708;2023-04-30T07:35:18;101731.32;;;15.39;56.24
55517;BME280;41724;51.176;-0.708;2023-04-30T07:37:45;101734.77;;;15.53;55.19
55517;BME280;41724;51.176;-0.708;2023-04-30T07:40:12;101734.22;;;15.44;56.25
55517;BME280;41724;51.176;-0.708;2023-04-30T07:42:40;101736.51;;;14.27;59.58
55517;BME280;41724;51.176;-0.708;2023-04-30T07:45:08;101738.71;;;14.76;58.31
55517;BME280;41724;51.176;-0.708;2023-04-30T07:47:35;101737.29;;;15.19;56.86
55517;BME280;41724;51.176;-0.708;2023-04-30T07:50:03;101734.35;;;16.06;56.51
55517;BME280;41724;51.176;-0.708;2023-04-30T07:52:30;101733.85;;;15.72;54.94
55517;BME280;41724;51.176;-0.708;2023-04-30T07:54:57;101735.32;;;16.14;55.05
55517;BME280;41724;51.176;-0.708;2023-04-30T07:57:25;101734.21;;;15.31;57.11
55517;BME280;41724;51.176;-0.708;2023-04-30T07:59:52;101736.41;;;15.63;55.67
55517;BME280;41724;51.176;-0.708;2023-04-30T08:02:18;101736.46;;;16.02;55.82
55517;BME280;41724;51.176;-0.708;2023-04-30T08:04:46;101734.17;;;16.34;55.48
55517;BME280;41724;51.176;-0.708;2023-04-30T08:07:13;101738.76;;;14.60;58.03
55517;BME280;41724;51.176;-0.708;2023-04-30T08:09:40;101738.16;;;14.80;58.99
55517;BME280;41724;51.176;-0.708;2023-04-30T08:12:07;101736.50;;;15.12;58.19
55517;BME280;41724;51.176;-0.708;2023-04-30T08:14:34;101733.59;;;15.73;56.82
55517;BME280;41724;51.176;-0.708;2023-04-30T08:17:01;101735.55;;;15.91;57.04
55517;BME280;41724;51.176;-0.708;2023-04-30T08:19:28;101733.46;;;16.46;55.10
55517;BME280;41724;51.176;-0.708;2023-04-30T08:21:55;101733.19;;;16.55;55.09
55517;BME280;41724;51.176;-0.708;2023-04-30T08:24:22;101737.58;;;14.94;56.84
55517;BME280;41724;51.176;-0.708;2023-04-30T08:26:49;101734.46;;;14.57;58.17
55517;BME280;41724;51.176;-0.708;2023-04-30T08:29:16;101736.28;;;14.67;59.60
55517;BME280;41724;51.176;-0.708;2023-04-30T08:31:42;101733.75;;;15.79;56.66
55517;BME280;41724;51.176;-0.708;2023-04-30T08:34:10;101729.84;;;16.43;55.85
55517;BME280;41724;51.176;-0.708;2023-04-30T08:36:37;101730.97;;;15.69;54.71
55517;BME280;41724;51.176;-0.708;2023-04-30T08:39:04;101731.68;;;17.45;52.47
55517;BME280;41724;51.176;-0.708;2023-04-30T08:41:32;101729.62;;;17.44;51.16
55517;BME280;41724;51.176;-0.708;2023-04-30T08:44:01;101734.11;;;17.29;50.49
55517;BME280;41724;51.176;-0.708;2023-04-30T08:46:30;101730.26;;;17.61;50.93
55517;BME280;41724;51.176;-0.708;2023-04-30T08:48:58;101723.95;;;16.88;53.00
55517;BME280;41724;51.176;-0.708;2023-04-30T08:51:26;101723.66;;;18.19;49.51
55517;BME280;41724;51.176;-0.708;2023-04-30T08:53:54;101724.29;;;18.14;48.91
55517;BME280;41724;51.176;-0.708;2023-04-30T08:56:24;101728.35;;;16.21;51.01
55517;BME280;41724;51.176;-0.708;2023-04-30T08:58:51;101724.67;;;15.91;52.49
55517;BME280;41724;51.176;-0.708;2023-04-30T09:01:19;101725.16;;;17.19;50.12
55517;BME280;41724;51.176;-0.708;2023-04-30T09:03:46;101721.93;;;17.17;49.71
55517;BME280;41724;51.176;-0.708;2023-04-30T09:06:15;101722.07;;;16.98;49.70
55517;BME280;41724;51.176;-0.708;2023-04-30T09:08:44;101722.27;;;17.37;48.92
55517;BME280;41724;51.176;-0.708;2023-04-30T09:11:28;101712.48;;;15.67;51.13
55517;BME280;41724;51.176;-0.708;2023-04-30T09:13:59;101709.03;;;15.99;51.92
55517;BME280;41724;51.176;-0.708;2023-04-30T09:16:28;101714.33;;;16.96;50.17
55517;BME280;41724;51.176;-0.708;2023-04-30T09:18:55;101712.69;;;16.89;48.88
55517;BME280;41724;51.176;-0.708;2023-04-30T09:21:30;101714.36;;;17.13;48.68
55517;BME280;41724;51.176;-0.708;2023-04-30T09:23:59;101714.83;;;17.98;48.05
55517;BME280;41724;51.176;-0.708;2023-04-30T09:26:32;101718.23;;;17.65;48.42
55517;BME280;41724;51.176;-0.708;2023-04-30T09:29:02;101715.60;;;18.31;47.10
55517;BME280;41724;51.176;-0.708;2023-04-30T09:31:29;101714.15;;;18.25;46.67
55517;BME280;41724;51.176;-0.708;2023-04-30T09:33:56;101707.58;;;19.05;46.25
55517;BME280;41724;51.176;-0.708;2023-04-30T09:36:23;101714.10;;;18.25;45.50
55517;BME280;41724;51.176;-0.708;2023-04-30T09:38:50;101712.63;;;17.89;46.34
55517;BME280;41724;51.176;-0.708;2023-04-30T09:41:22;101710.80;;;17.18;49.18
55517;BME280;41724;51.176;-0.708;2023-04-30T09:43:50;101704.49;;;19.04;45.54
55517;BME280;41724;51.176;-0.708;2023-04-30T09:46:18;101701.97;;;18.76;45.29
55517;BME280;41724;51.176;-0.708;2023-04-30T09:48:48;101705.59;;;16.45;48.93
55517;BME280;41724;51.176;-0.708;2023-04-30T09:51:24;101705.04;;;16.86;49.20
55517;BME280;41724;51.176;-0.708;2023-04-30T09:53:51;101701.60;;;17.84;46.97
55517;BME280;41724;51.176;-0.708;2023-04-30T09:56:21;101699.45;;;16.47;47.37
55517;BME280;41724;51.176;-0.708;2023-04-30T09:58:50;101700.69;;;17.23;47.78
55517;BME280;41724;51.176;-0.708;2023-04-30T10:01:19;101702.61;;;17.32;48.12
55517;BME280;41724;51.176;-0.708;2023-04-30T10:03:47;101704.29;;;17.49;48.48
55517;BME280;41724;51.176;-0.708;2023-04-30T10:06:15;101704.94;;;17.39;47.69
55517;BME280;41724;51.176;-0.708;2023-04-30T10:08:43;101709.49;;;16.99;47.19
55517;BME280;41724;51.176;-0.708;2023-04-30T10:11:17;101703.97;;;17.19;46.98
55517;BME280;41724;51.176;-0.708;2023-04-30T10:13:49;101699.44;;;18.91;45.10
55517;BME280;41724;51.176;-0.708;2023-04-30T10:16:26;101698.48;;;18.91;44.78
55517;BME280;41724;51.176;-0.708;2023-04-30T10:18:59;101700.92;;;18.10;42.22
55517;BME280;41724;51.176;-0.708;2023-04-30T10:21:29;101693.98;;;18.80;42.22
55517;BME280;41724;51.176;-0.708;2023-04-30T10:23:58;101692.70;;;17.93;42.69
55517;BME280;41724;51.176;-0.708;2023-04-30T10:26:25;101695.15;;;17.67;44.96
55517;BME280;41724;51.176;-0.708;2023-04-30T10:28:55;101684.09;;;18.61;42.58
55517;BME280;41724;51.176;-0.708;2023-04-30T10:31:24;101686.48;;;18.66;44.02
55517;BME280;41724;51.176;-0.708;2023-04-30T10:34:01;101687.78;;;18.33;41.90
55517;BME280;41724;51.176;-0.708;2023-04-30T10:36:38;101687.33;;;17.28;43.63
55517;BME280;41724;51.176;-0.708;2023-04-30T10:39:06;101685.94;;;17.00;43.77
55517;BME280;41724;51.176;-0.708;2023-04-30T10:41:33;101674.89;;;17.32;43.72
55517;BME280;41724;51.176;-0.708;2023-04-30T10:44:01;101680.23;;;16.83;43.37
55517;BME280;41724;51.176;-0.708;2023-04-30T10:46:28;101678.09;;;17.26;42.74
55517;BME280;41724;51.176;-0.708;2023-04-30T10:48:57;101673.18;;;17.60;43.31
55517;BME280;41724;51.176;-0.708;2023-04-30T10:51:43;101675.37;;;17.56;43.99
55517;BME280;41724;51.176;-0.708;2023-04-30T10:54:13;101672.91;;;19.57;41.99
55517;BME280;41724;51.176;-0.708;2023-04-30T10:56:44;101664.29;;;18.95;43.51
55517;BME280;41724;51.176;-0.708;2023-04-30T10:59:11;101659.92;;;19.52;40.45
55517;BME280;41724;51.176;-0.708;2023-04-30T11:01:57;101666.96;;;19.31;41.75
55517;BME280;41724;51.176;-0.708;2023-04-30T11:04:24;101660.91;;;19.44;40.23
55517;BME280;41724;51.176;-0.708;2023-04-30T11:07:01;101654.62;;;20.23;37.35
55517;BME280;41724;51.176;-0.708;2023-04-30T11:09:39;101654.99;;;19.73;37.37
55517;BME280;41724;51.176;-0.708;2023-04-30T11:12:11;101643.94;;;20.02;37.21
55517;BME280;41724;51.176;-0.708;2023-04-30T11:14:41;101645.18;;;20.18;37.17
55517;BME280;41724;51.176;-0.708;2023-04-30T11:17:09;101646.28;;;19.25;36.59
55517;BME280;41724;51.176;-0.708;2023-04-30T11:19:47;101639.39;;;19.79;37.89
55517;BME280;41724;51.176;-0.708;2023-04-30T11:22:17;101633.52;;;20.53;35.94
55517;BME280;41724;51.176;-0.708;2023-04-30T11:24:53;101635.56;;;19.24;35.76
55517;BME280;41724;51.176;-0.708;2023-04-30T11:27:22;101638.89;;;18.78;36.66
55517;BME280;41724;51.176;-0.708;2023-04-30T11:29:51;101630.93;;;20.08;36.15
55517;BME280;41724;51.176;-0.708;2023-04-30T11:32:18;101628.87;;;20.77;34.18
55517;BME280;41724;51.176;-0.708;2023-04-30T11:34:47;101631.12;;;20.92;35.69
55517;BME280;41724;51.176;-0.708;2023-04-30T11:37:18;101620.99;;;21.12;34.18
55517;BME280;41724;51.176;-0.708;2023-04-30T11:39:46;101618.35;;;21.43;33.31
55517;BME280;41724;51.176;-0.708;2023-04-30T11:42:16;101616.42;;;22.01;32.06
55517;BME280;41724;51.176;-0.708;2023-04-30T11:44:43;101616.56;;;21.06;32.82
55517;BME280;41724;51.176;-0.708;2023-04-30T11:47:12;101612.52;;;21.75;32.52
55517;BME280;41724;51.176;-0.708;2023-04-30T11:49:39;101611.43;;;21.76;32.20
55517;BME280;41724;51.176;-0.708;2023-04-30T11:52:07;101614.15;;;20.95;32.69
55517;BME280;41724;51.176;-0.708;2023-04-30T11:54:36;101611.18;;;19.85;34.06
55517;BME280;41724;51.176;-0.708;2023-04-30T11:57:03;101605.02;;;21.74;34.31
55517;BME280;41724;51.176;-0.708;2023-04-30T11:59:31;101609.27;;;21.06;33.69
55517;BME280;41724;51.176;-0.708;2023-04-30T12:01:58;101605.98;;;22.38;31.63
55517;BME280;41724;51.176;-0.708;2023-04-30T12:04:25;101603.91;;;22.17;32.51
55517;BME280;41724;51.176;-0.708;2023-04-30T12:06:52;101604.11;;;22.14;32.20
55517;BME280;41724;51.176;-0.708;2023-04-30T12:09:19;101596.37;;;22.58;33.23
55517;BME280;41724;51.176;-0.708;2023-04-30T12:11:46;101592.06;;;22.00;32.30
55517;BME280;41724;51.176;-0.708;2023-04-30T12:14:13;101593.14;;;21.63;32.01
55517;BME280;41724;51.176;-0.708;2023-04-30T12:16:41;101590.21;;;22.26;32.08
55517;BME280;41724;51.176;-0.708;2023-04-30T12:19:09;101591.77;;;22.35;31.04
55517;BME280;41724;51.176;-0.708;2023-04-30T12:21:36;101593.30;;;21.01;33.27
55517;BME280;41724;51.176;-0.708;2023-04-30T12:24:04;101586.81;;;21.41;33.09
55517;BME280;41724;51.176;-0.708;2023-04-30T12:26:35;101576.68;;;22.70;31.56
55517;BME280;41724;51.176;-0.708;2023-04-30T12:29:03;101582.31;;;22.72;32.05
55517;BME280;41724;51.176;-0.708;2023-04-30T12:31:31;101577.80;;;23.78;31.52
55517;BME280;41724;51.176;-0.708;2023-04-30T12:34:04;101582.48;;;22.88;31.28
55517;BME280;41724;51.176;-0.708;2023-04-30T12:36:32;101580.17;;;23.06;30.96
55517;BME280;41724;51.176;-0.708;2023-04-30T12:39:05;101572.73;;;24.14;29.37
55517;BME280;41724;51.176;-0.708;2023-04-30T12:41:35;101568.88;;;24.72;28.07
55517;BME280;41724;51.176;-0.708;2023-04-30T12:44:20;101575.58;;;22.62;31.17
55517;BME280;41724;51.176;-0.708;2023-04-30T12:46:48;101572.59;;;22.80;31.83